Date,TemperatureHighF,TemperatureAvgF,TemperatureLowF,DewpointHighF,DewpointAvgF,DewpointLowF,HumidityHigh,HumidityAvg,HumidityLow,PressureMaxIn,PressureMinIn,WindSpeedMaxMPH,WindSpeedAvgMPH,GustSpeedMaxMPH,PrecipitationSumIn
2013-1-1,35.0,30.2,24.0,33.9,26.8,17.6,96,87,76,30.27,30.07,9,4,13,0.02
2013-1-2,34.4,25.1,17.4,20.5,17.1,13.6,88,73,49,30.33,30.23,5,1,7,0.00
2013-1-3,42.3,29.2,18.8,30.7,23.7,16.3,92,81,57,30.44,30.27,9,1,11,0.00
2013-1-4,44.1,32.4,21.7,32.1,27.3,19.7,94,82,60,30.48,30.37,9,1,11,0.01
2013-1-5,41.6,35.1,26.0,36.6,31.2,23.9,100,86,70,30.39,30.20,7,1,11,0.00
2013-1-6,42.1,35.4,25.4,35.3,29.1,21.6,94,79,58,30.41,30.14,14,2,15,0.00
2013-1-7,43.5,30.8,21.3,31.1,25.4,19.3,94,82,54,30.48,30.22,9,1,12,0.00
2013-1-8,52.7,39.9,25.4,40.9,33.0,23.5,95,78,55,30.28,30.17,10,1,14,0.02
2013-1-9,58.1,50.1,43.5,49.3,43.5,39.1,95,79,61,30.43,30.23,11,2,12,0.02
2013-1-10,64.2,54.3,45.8,62.0,50.7,37.1,96,88,63,30.42,29.83,16,6,22,0.27
2013-1-11,61.0,57.0,52.5,58.3,51.9,48.1,92,84,74,29.96,29.83,16,3,19,0.21
2013-1-12,62.2,55.3,39.2,60.6,53.5,36.3,96,94,83,29.95,29.65,19,2,28,2.11
2013-1-13,38.7,31.2,23.1,36.3,28.4,19.2,94,89,84,30.34,29.81,11,4,20,0.54
2013-1-14,28.4,24.5,20.8,22.2,19.5,16.9,87,81,75,30.51,30.34,11,4,15,0.00
2013-1-15,30.2,27.0,22.0,24.2,21.7,19.0,89,81,74,30.38,30.11,11,4,16,0.00
2013-1-16,38.0,31.6,28.3,26.6,24.3,20.8,84,75,53,30.18,30.08,6,2,9,0.03
2013-1-17,44.3,36.2,26.0,35.1,27.6,22.6,89,71,60,30.50,30.14,12,3,19,0.00
2013-1-18,45.8,34.8,21.8,34.0,27.3,19.3,91,75,56,30.56,30.27,15,2,17,0.00
2013-1-19,56.2,45.0,35.1,42.9,36.0,29.2,84,71,57,30.27,30.02,15,3,23,0.08
2013-1-20,45.1,38.6,29.0,36.8,25.2,17.3,93,60,35,30.31,30.11,13,3,16,0.00
2013-1-21,34.0,26.6,22.1,19.1,11.8,2.4,71,54,40,30.38,30.25,10,4,13,0.00
2013-1-22,26.6,22.4,18.1,10.0,4.6,1.5,61,46,34,30.49,30.37,8,2,11,0.00
2013-1-23,44.3,30.1,16.5,29.8,19.9,7.5,87,66,49,30.38,30.16,9,2,14,0.00
2013-1-24,36.4,29.0,22.2,24.6,13.7,7.7,69,53,39,30.58,30.26,15,6,22,0.00
2013-1-25,43.8,34.4,28.9,30.5,24.4,12.7,89,68,45,30.26,30.13,9,2,12,0.00
2013-1-26,45.4,34.6,25.7,28.4,24.0,20.0,94,68,39,30.38,30.23,9,2,11,0.00
2013-1-27,53.1,40.1,28.9,49.0,35.4,20.1,94,84,64,30.32,30.05,8,2,14,0.13
2013-1-28,64.7,59.6,53.2,60.3,56.4,48.8,95,90,84,30.06,29.96,10,3,19,0.06
2013-1-29,62.3,59.6,53.2,58.5,56.3,51.4,94,89,86,29.97,29.47,9,4,21,1.46
2013-1-30,54.0,45.0,32.5,51.6,39.5,22.7,96,81,63,29.94,29.40,16,5,22,0.13
2013-1-31,41.0,32.0,19.3,32.9,22.1,7.4,91,67,55,30.37,29.94,13,4,22,0.02
2013-2-1,27.9,21.4,13.0,16.4,8.7,2.7,67,58,45,30.56,30.31,11,3,15,0.00
2013-2-2,49.8,35.3,26.9,31.3,24.9,16.7,82,66,45,30.32,30.08,12,2,13,0.00
2013-2-3,44.1,36.3,29.4,32.0,25.9,20.6,91,68,41,30.17,30.02,14,2,16,0.00
2013-2-4,45.5,39.8,31.3,40.9,33.5,23.9,100,78,60,30.07,29.85,13,2,15,0.02
2013-2-5,54.8,41.1,29.0,42.5,34.6,26.9,95,78,59,30.10,29.93,9,2,13,0.01
2013-2-6,54.5,43.4,29.6,34.6,31.7,27.2,93,65,41,30.26,30.07,9,2,13,0.00
2013-2-7,63.3,51.9,38.5,53.5,42.8,31.1,94,72,54,30.07,29.83,10,2,16,0.17
2013-2-8,47.1,39.1,33.8,43.4,33.5,27.8,89,80,72,30.36,29.95,15,5,18,0.00
2013-2-9,44.7,37.9,31.8,38.1,30.5,26.7,88,75,62,30.37,30.04,10,3,12,0.01
2013-2-10,56.4,49.6,42.5,53.5,43.3,35.2,94,80,58,30.04,29.72,15,3,25,0.63
2013-2-11,56.9,45.9,35.3,38.8,29.9,25.4,79,55,32,30.14,29.83,9,2,18,0.00
2013-2-12,49.6,41.1,27.7,33.7,30.4,25.3,92,67,48,30.16,29.88,10,2,11,0.00
2013-2-13,49.9,42.4,35.9,39.3,36.3,33.2,93,80,60,29.94,29.86,11,3,14,0.11
2013-2-14,62.7,47.8,35.1,41.0,35.1,30.2,95,65,34,30.04,29.89,8,2,11,0.00
2013-2-15,46.8,40.8,28.1,34.0,24.5,13.8,66,53,29,30.23,30.04,14,3,18,0.00
2013-2-16,39.1,31.0,24.4,18.9,14.6,6.5,73,52,28,30.26,30.19,10,3,15,0.00
2013-2-17,48.5,36.7,22.2,31.2,24.4,11.7,84,62,46,30.23,30.01,11,3,18,0.00
2013-2-18,53.7,47.9,42.2,49.2,41.3,28.1,93,79,55,30.01,29.63,22,5,32,1.33
2013-2-19,46.0,37.3,29.3,37.0,19.4,8.8,80,51,23,30.30,29.87,15,4,20,0.00
2013-2-20,31.8,27.5,24.3,19.0,15.0,12.0,71,59,51,30.40,30.27,9,3,14,0.00
2013-2-21,34.5,30.0,26.3,32.6,24.6,18.3,94,80,64,30.30,29.81,17,4,22,0.00
2013-2-22,42.2,35.5,28.3,36.1,31.6,25.4,95,86,72,30.09,29.83,13,2,20,0.10
2013-2-23,44.0,33.8,25.0,28.4,25.0,20.8,90,71,50,30.08,29.97,8,1,11,0.00
2013-2-24,51.2,37.9,23.6,30.5,26.4,20.8,90,66,42,30.14,30.00,8,2,12,0.00
2013-2-25,56.0,45.9,37.9,37.8,30.2,26.5,87,56,32,30.04,29.43,21,8,25,0.53
2013-2-26,49.0,43.7,38.6,45.6,39.6,33.6,94,86,76,29.67,29.30,17,5,21,0.27
2013-2-27,40.6,38.2,34.8,34.2,31.2,27.3,85,76,65,29.91,29.67,12,4,17,0.00
2013-2-28,40.1,35.9,33.9,32.3,29.9,26.9,90,79,72,30.10,29.91,8,3,11,0.00
2013-3-1,36.8,33.7,31.0,33.1,30.6,27.6,92,89,82,30.15,30.06,9,3,12,0.08
2013-3-2,34.1,31.3,28.3,27.8,24.5,19.6,89,76,60,30.23,30.14,11,4,16,0.01
2013-3-3,41.2,33.1,20.5,28.7,22.4,17.2,88,66,45,30.23,30.07,7,1,10,0.00
2013-3-4,54.7,45.9,36.5,42.8,32.5,25.1,86,60,48,30.08,29.75,17,4,22,0.04
2013-3-5,47.7,39.8,34.3,42.5,33.1,21.9,93,78,54,30.10,29.74,20,5,26,0.21
2013-3-6,43.9,36.2,31.4,29.4,25.9,23.6,76,66,55,30.35,30.09,12,4,20,0.00
2013-3-7,48.8,36.8,26.6,32.1,27.8,23.4,92,71,44,30.43,30.31,9,1,11,0.00
2013-3-8,56.2,43.1,28.3,34.2,29.3,25.7,91,62,31,30.44,30.21,11,3,13,0.00
2013-3-9,68.6,56.0,44.8,39.6,34.6,29.5,60,45,32,30.21,29.87,16,5,20,0.00
2013-3-10,63.9,56.5,49.2,54.2,46.7,36.8,95,72,43,29.87,29.67,22,5,24,0.45
2013-3-11,49.2,40.9,34.1,46.5,35.0,29.6,92,80,70,30.01,29.69,12,3,16,0.01
2013-3-12,54.3,40.9,29.5,29.8,27.3,23.8,88,62,32,30.20,29.99,10,3,16,0.00
2013-3-13,45.9,37.8,28.7,26.9,22.2,18.8,70,54,37,30.42,30.20,12,4,16,0.00
2013-3-14,49.0,38.4,25.2,33.0,26.9,20.0,89,65,50,30.42,30.11,12,2,16,0.00
2013-3-15,73.3,55.4,35.5,54.2,42.7,29.8,85,64,45,30.11,29.73,11,2,16,0.00
2013-3-16,66.1,55.1,43.7,52.5,45.5,37.2,79,70,57,29.97,29.69,14,5,21,0.00
2013-3-17,43.7,39.9,36.4,40.4,37.3,34.1,98,90,79,30.06,29.74,14,6,19,1.04
2013-3-18,52.6,45.2,37.9,44.9,40.5,34.0,96,84,61,29.99,29.66,18,3,25,0.62
2013-3-19,52.6,42.6,30.8,34.5,23.2,15.1,82,49,23,30.20,29.99,11,3,14,0.00
2013-3-20,45.2,37.5,29.4,32.9,24.0,14.3,84,59,40,30.24,30.08,14,4,17,0.00
2013-3-21,41.7,33.1,22.6,22.9,17.2,14.2,81,53,34,30.13,29.98,8,2,13,0.00
2013-3-22,41.9,38.1,34.3,28.6,24.9,21.8,65,59,53,30.04,29.96,8,3,10,0.00
2013-3-23,54.3,45.4,39.7,41.5,32.5,26.4,89,61,50,30.01,29.75,15,5,20,0.12
2013-3-24,44.7,38.7,33.6,41.6,35.8,29.7,93,89,82,29.80,29.46,15,6,20,0.16
2013-3-25,38.5,34.5,32.5,32.5,28.8,25.9,92,80,67,30.19,29.80,16,5,21,0.01
2013-3-26,47.1,37.0,30.1,32.8,27.2,24.1,88,69,44,30.36,30.19,11,3,13,0.02
2013-3-27,50.6,39.1,24.6,32.5,27.1,21.5,90,64,41,30.41,30.29,7,1,12,0.00
2013-3-28,58.0,48.3,39.2,43.3,35.0,30.4,82,61,42,30.37,30.22,9,2,12,0.01
2013-3-29,56.9,50.1,44.6,50.2,45.7,39.4,95,85,67,30.25,30.16,8,2,13,0.59
2013-3-30,52.4,47.4,39.0,48.9,45.4,37.6,96,93,82,30.19,29.90,7,2,10,0.31
2013-3-31,65.6,55.6,49.5,53.1,49.5,47.1,96,82,54,29.93,29.83,8,1,11,0.01
2013-4-1,53.9,48.2,41.5,47.8,32.6,24.8,91,56,37,30.20,29.89,16,4,18,0.00
2013-4-2,48.7,41.8,34.4,25.8,21.8,16.4,64,46,28,30.33,30.20,13,2,14,0.00
2013-4-3,53.1,45.0,34.7,27.7,23.6,19.2,69,44,31,30.35,30.20,15,5,19,0.00
2013-4-4,60.4,49.8,40.5,30.5,25.9,22.7,59,40,26,30.20,29.99,9,3,13,0.00
2013-4-5,69.9,53.2,32.8,42.7,34.8,27.2,89,53,30,30.13,30.03,9,2,12,0.00
2013-4-6,72.5,60.5,46.7,46.8,41.7,36.6,75,52,28,30.06,29.82,17,4,25,0.00
2013-4-7,74.1,65.6,56.6,58.6,53.5,46.6,77,65,54,29.93,29.85,12,4,19,0.00
2013-4-8,75.4,67.0,60.3,60.4,56.7,52.4,80,70,55,29.87,29.78,11,3,20,0.00
2013-4-9,81.3,72.0,63.2,65.5,61.6,56.0,79,70,52,29.94,29.80,12,3,22,0.00
2013-4-10,83.2,75.1,63.8,68.2,65.5,61.9,94,73,57,29.85,29.61,17,5,24,0.09
2013-4-11,65.7,53.9,42.3,63.9,49.7,34.8,95,86,67,29.76,29.51,17,3,26,0.47
2013-4-12,60.6,46.9,35.1,39.5,34.9,31.4,94,66,37,30.04,29.75,13,3,16,0.05
2013-4-13,63.1,50.6,35.5,45.1,38.9,31.3,88,66,45,30.10,29.92,8,2,12,0.03
2013-4-14,74.6,62.1,47.6,56.4,47.8,40.7,83,61,41,29.92,29.69,15,4,23,0.03
2013-4-15,78.1,68.0,59.6,63.3,58.2,51.5,85,72,57,29.88,29.76,13,3,17,0.00
2013-4-16,73.1,63.9,56.2,63.5,57.9,53.3,90,81,66,30.05,29.84,11,3,12,0.01
2013-4-17,83.8,69.5,53.9,71.0,62.2,52.0,95,79,59,30.05,29.74,13,3,23,0.00
2013-4-18,76.1,66.8,44.3,67.2,60.5,38.6,95,81,66,29.75,29.58,18,6,28,0.80
2013-4-19,55.1,46.0,39.2,39.1,31.4,25.7,82,58,34,30.09,29.73,15,4,18,0.42
2013-4-20,59.2,48.3,33.0,40.1,33.7,29.5,89,60,39,30.31,30.09,8,2,11,0.14
2013-4-21,65.0,54.0,42.5,42.0,36.2,32.3,69,52,38,30.40,30.21,10,4,13,0.00
2013-4-22,71.1,59.1,42.3,51.7,43.5,34.5,79,58,39,30.25,29.98,12,2,16,0.00
2013-4-23,71.3,62.6,45.2,61.4,53.3,41.4,88,72,52,30.02,29.79,11,3,22,0.00
2013-4-24,54.6,45.4,39.1,41.4,37.5,33.6,92,76,46,30.27,29.90,11,3,16,0.17
2013-4-25,67.3,51.8,35.1,45.1,39.9,33.2,95,68,39,30.35,30.25,9,2,13,0.00
2013-4-26,53.1,51.3,48.2,49.7,46.1,40.6,95,83,65,30.42,30.23,10,2,13,0.57
2013-4-27,57.3,53.7,50.1,56.1,52.2,48.7,96,95,93,30.27,29.89,14,3,15,0.41
2013-4-28,63.0,57.0,51.5,55.5,53.2,50.1,96,88,72,29.94,29.87,6,1,9,0.00
2013-4-29,72.8,60.8,46.7,61.3,54.9,45.4,99,82,64,29.98,29.83,12,2,15,0.01
2013-4-30,80.8,69.4,57.8,61.3,57.7,53.9,92,69,44,29.92,29.84,12,2,15,0.00
2013-5-1,81.2,68.8,56.4,66.3,59.1,53.0,90,73,47,30.04,29.92,11,2,14,0.00
2013-5-2,75.9,67.7,58.5,62.6,59.3,56.0,94,76,54,30.10,29.99,9,2,12,0.02
2013-5-3,48.9,45.3,42.0,47.5,43.8,40.3,95,95,94,29.90,29.78,7,2,11,1.84
2013-5-4,50.2,44.1,40.3,40.8,38.6,36.0,95,82,64,29.94,29.85,8,2,12,0.02
2013-5-5,57.6,52.8,45.9,55.2,51.0,44.2,96,94,89,29.92,29.84,5,1,8,0.59
2013-5-6,65.8,58.7,53.1,58.3,54.8,51.4,96,87,73,29.93,29.83,13,3,17,0.00
2013-5-7,73.0,62.3,54.3,60.0,56.3,52.3,95,82,59,29.99,29.92,9,2,12,0.00
2013-5-8,73.6,67.8,63.1,62.6,60.9,58.3,89,79,59,29.97,29.94,0,0,1,0.00
2013-5-9,80.8,71.0,59.8,65.4,60.0,52.5,96,71,38,29.97,29.84,18,3,22,0.00
2013-5-10,76.5,68.6,58.9,67.4,62.0,54.6,95,80,62,29.95,29.78,11,2,13,0.18
2013-5-11,74.3,63.1,53.9,57.3,49.7,35.2,86,64,33,30.10,29.93,10,2,14,0.00
2013-5-12,65.9,54.7,41.5,39.8,35.7,30.1,84,51,28,30.21,30.11,9,2,13,0.00
2013-5-13,71.3,55.3,38.4,45.7,39.2,34.5,92,60,32,30.24,30.10,9,1,12,0.00
2013-5-14,80.5,77.6,74.9,62.9,61.1,59.2,66,57,50,29.89,29.86,8,3,10,0.00
2013-5-15,85.5,75.1,61.2,64.8,60.7,56.8,87,62,44,29.97,29.84,11,3,20,0.02
2013-5-16,79.9,72.7,64.8,63.3,60.5,56.7,88,67,48,29.93,29.84,11,2,15,0.02
2013-5-17,72.0,67.7,64.4,68.6,64.5,61.9,95,90,83,29.92,29.86,8,2,12,0.12
2013-5-18,83.2,71.5,60.3,69.3,64.9,59.1,97,81,57,29.97,29.85,6,1,11,0.00
2013-5-19,87.8,78.7,69.0,75.9,69.6,64.3,95,75,52,29.87,29.74,12,2,16,0.05
2013-5-20,87.9,79.2,73.2,71.3,69.2,67.1,87,72,51,29.87,29.72,11,3,18,0.00
2013-5-21,79.6,69.2,64.6,69.3,64.5,62.3,95,86,66,29.85,29.70,13,3,21,0.29
2013-5-22,77.5,70.0,63.2,64.0,61.9,58.3,92,77,55,29.83,29.70,10,3,16,0.03
2013-5-23,74.6,65.1,55.2,61.0,56.4,51.7,94,74,57,30.15,29.83,10,2,21,0.00
2013-5-24,70.3,59.0,48.0,51.8,42.5,33.4,82,57,32,30.36,30.14,16,3,18,0.01
2013-5-25,75.3,62.3,45.6,55.4,50.2,43.7,96,68,43,30.32,30.10,9,2,13,0.06
2013-5-26,83.6,71.1,55.9,64.5,58.9,53.3,92,68,49,30.15,30.00,11,2,13,0.00
2013-5-27,84.5,76.1,62.9,69.1,62.3,56.3,83,63,46,30.01,29.83,12,2,17,0.05
2013-5-28,88.3,79.0,70.8,69.0,64.5,60.4,85,62,44,29.94,29.83,16,4,24,0.03
2013-5-29,76.7,70.5,64.7,64.4,61.8,60.5,90,75,59,29.98,29.88,7,1,10,0.06
2013-5-30,84.8,79.4,75.3,71.6,69.1,67.7,85,72,58,29.89,29.81,14,4,22,0.06
2013-5-31,79.2,77.2,73.6,73.2,71.1,68.2,87,82,78,29.87,29.74,13,4,25,0.02
2013-6-1,78.7,67.8,64.4,72.7,65.0,62.6,96,91,70,29.91,29.72,15,4,22,0.14
2013-6-3,73.7,67.1,57.4,59.1,55.9,54.4,90,69,54,30.02,29.93,7,2,11,0.00
2013-6-4,77.9,66.4,53.0,62.6,57.6,51.1,94,75,53,30.05,29.93,8,1,10,0.00
2013-6-5,83.6,73.3,63.3,67.4,62.5,58.9,93,71,45,29.95,29.76,8,1,11,0.12
2013-6-6,82.4,73.3,66.2,67.2,63.8,60.9,94,74,54,29.80,29.72,10,1,13,0.00
2013-6-7,78.9,70.6,63.6,63.4,59.4,56.9,83,69,50,29.86,29.76,11,2,13,0.00
2013-6-8,81.3,70.1,56.9,62.6,57.5,51.9,95,68,40,29.94,29.84,8,1,10,0.00
2013-6-9,71.6,67.1,63.7,68.8,64.9,62.2,96,93,89,29.82,29.76,5,0,7,0.41
2013-6-10,83.9,72.9,62.3,69.7,65.1,60.8,97,79,52,29.88,29.77,7,1,11,0.07
2013-6-11,93.2,79.2,62.3,75.8,69.3,60.6,96,74,53,29.95,29.84,10,2,13,0.00
2013-6-12,91.7,82.3,74.0,76.1,72.8,70.7,90,74,56,29.94,29.75,11,2,17,0.00
2013-6-13,83.6,77.6,66.3,72.8,68.1,62.9,89,73,63,29.91,29.74,10,2,13,0.00
2013-6-14,70.2,66.8,65.2,63.0,62.2,61.4,91,85,77,29.99,29.90,0,0,1,0.02
2013-6-15,87.6,75.3,63.0,71.7,65.1,60.9,95,73,46,30.05,29.90,9,1,11,0.00
2013-6-16,86.9,78.0,70.7,74.2,70.1,67.4,93,78,58,29.97,29.87,9,1,12,0.03
2013-6-17,84.5,72.1,65.3,75.1,69.1,62.6,96,91,70,29.90,29.83,9,1,13,2.63
2013-6-18,87.8,75.0,63.1,71.9,66.7,61.6,96,78,49,29.93,29.82,7,1,10,0.00
2013-6-19,87.1,77.2,66.5,72.0,67.2,62.0,95,73,46,30.00,29.89,6,1,11,0.00
2013-6-20,88.4,78.1,67.0,73.3,69.3,65.2,95,76,52,30.08,29.99,7,1,9,0.04
2013-6-21,91.1,80.8,69.0,74.0,70.1,67.1,96,72,46,30.10,29.99,8,1,16,0.06
2013-6-22,89.3,78.7,67.7,75.0,69.7,65.2,94,75,53,30.10,29.90,10,2,16,0.84
2013-6-23,88.4,76.7,67.8,75.6,69.5,65.1,95,80,57,30.06,29.89,11,2,17,0.07
2013-6-24,91.0,79.6,68.6,76.6,71.9,66.7,96,79,51,30.05,29.93,9,2,12,0.01
2013-6-25,91.6,83.4,76.0,76.9,73.3,71.6,91,73,54,29.97,29.79,10,2,16,0.05
2013-6-26,90.2,81.3,75.5,78.8,73.9,68.8,95,79,66,29.87,29.67,13,2,21,0.99
2013-6-27,94.9,85.9,76.8,75.9,72.3,69.3,95,66,44,29.82,29.73,6,0,8,0.00
2013-6-28,91.2,81.8,70.8,73.8,67.8,59.1,88,64,42,29.80,29.63,8,1,12,0.00
2013-6-29,85.6,73.0,63.8,69.0,63.4,59.9,94,73,48,29.67,29.58,10,1,22,0.23
2013-6-30,77.5,68.5,63.2,68.2,64.2,61.4,95,87,65,29.81,29.65,15,1,23,0.39
2013-7-1,71.3,66.9,64.4,66.6,64.0,62.4,94,90,80,29.89,29.78,8,1,13,0.22
2013-7-2,68.3,65.1,63.3,64.6,62.9,61.6,95,93,84,30.00,29.84,7,1,9,0.04
2013-7-3,79.4,69.2,62.6,65.1,61.7,58.8,96,79,50,30.08,29.98,7,1,10,0.06
2013-7-4,83.0,72.6,59.2,69.4,64.3,57.6,96,77,53,30.04,29.94,8,2,11,0.00
2013-7-5,82.5,73.7,63.8,70.6,67.3,62.3,96,81,64,30.04,29.94,8,1,10,0.00
2013-7-6,85.0,74.3,68.4,71.2,68.2,64.2,95,82,57,30.03,29.93,7,1,15,0.02
2013-7-7,88.2,76.4,63.6,75.2,68.7,62.0,96,79,52,30.04,29.96,9,1,10,0.00
2013-7-8,91.4,79.2,69.2,74.9,70.9,67.3,96,78,48,30.08,29.98,7,1,10,0.03
2013-7-9,93.5,84.5,72.6,77.9,73.6,70.2,94,72,52,30.03,29.90,9,2,12,0.06
2013-7-10,88.3,81.5,76.3,76.4,73.9,71.1,91,78,62,29.97,29.83,6,1,9,0.00
2013-7-11,83.6,76.9,65.8,73.7,67.6,58.7,94,75,53,29.98,29.88,14,2,17,0.08
2013-7-12,82.6,72.0,62.5,64.3,60.8,56.8,90,70,45,30.05,29.96,14,3,16,0.00
2013-7-13,84.1,73.9,62.3,66.8,62.7,57.6,92,70,48,30.02,29.94,11,2,16,0.06
2013-7-14,85.9,74.0,65.2,72.7,68.7,62.6,95,84,61,30.08,29.97,11,2,13,0.13
2013-7-15,87.4,78.5,72.0,76.6,73.0,70.4,96,84,65,30.18,30.07,7,2,13,0.06
2013-7-16,89.7,80.8,70.7,76.0,72.7,69.1,96,78,58,30.24,30.17,8,1,12,0.00
2013-7-17,92.7,82.7,71.3,77.4,73.3,69.4,95,75,53,30.27,30.12,6,1,10,0.06
2013-7-18,93.1,82.4,73.1,77.8,73.9,71.2,95,77,53,30.16,30.00,8,1,11,0.00
2013-7-19,90.3,81.1,71.0,75.6,71.8,69.2,96,75,53,30.00,29.85,9,1,13,0.11
2013-7-20,91.0,80.4,72.1,76.9,72.0,68.8,93,77,58,29.89,29.75,10,2,14,0.00
2013-7-21,88.4,77.3,70.6,75.7,70.9,67.8,94,82,60,29.90,29.80,8,1,12,0.08
2013-7-22,89.0,79.2,71.3,77.0,72.3,69.4,94,81,61,29.84,29.73,7,1,12,0.00
2013-7-23,91.6,78.8,69.5,76.3,71.4,66.0,94,80,54,29.84,29.70,11,2,15,0.48
2013-7-24,82.1,73.1,66.5,69.4,64.6,57.8,96,76,53,29.96,29.81,9,2,13,0.00
2013-7-25,80.7,70.6,60.1,64.2,60.1,57.0,91,71,48,30.06,29.96,10,1,14,0.08
2013-7-26,78.8,70.0,60.4,70.3,64.3,58.6,95,83,59,30.04,29.92,6,0,9,0.03
2013-7-27,81.4,72.5,64.8,70.7,64.7,54.3,96,78,52,29.94,29.86,9,1,10,0.40
2013-7-28,79.0,67.8,54.8,61.2,57.3,52.3,94,71,44,30.02,29.93,7,1,14,0.00
2013-7-29,78.2,69.0,61.1,65.6,62.5,59.0,95,81,59,30.13,30.01,6,1,10,0.06
2013-7-30,73.3,70.1,66.7,71.6,67.6,63.2,95,92,80,30.09,29.96,7,1,10,0.60
2013-7-31,85.0,76.8,71.4,75.6,71.9,69.1,96,86,70,29.98,29.89,9,1,10,0.00
2013-8-1,87.3,75.4,66.2,72.4,67.5,62.8,95,78,52,30.02,29.93,7,1,11,0.05
2013-8-2,84.9,74.2,62.5,71.8,67.4,61.0,96,81,59,29.97,29.88,6,1,13,0.00
2013-8-3,84.0,75.7,69.9,76.2,71.7,67.7,95,88,73,30.03,29.86,8,1,9,0.12
2013-8-4,81.8,74.3,67.6,70.1,65.6,62.6,89,75,54,30.10,30.01,8,2,11,0.00
2013-8-5,70.8,68.9,65.8,69.2,65.0,61.5,95,88,76,30.04,29.87,8,1,11,0.61
2013-8-6,81.8,74.7,70.8,73.8,71.5,69.2,97,90,73,29.90,29.82,7,1,10,0.09
2013-8-7,81.6,74.5,70.3,73.5,71.1,68.7,97,90,74,29.92,29.79,7,1,9,0.42
2013-8-8,84.4,75.0,68.8,76.5,72.1,67.6,97,91,72,29.95,29.83,7,1,9,1.22
2013-8-9,79.5,74.9,71.2,75.2,72.6,69.7,96,93,85,30.00,29.87,6,1,11,1.27
2013-8-10,83.7,75.3,69.4,74.6,70.9,67.9,97,87,66,30.08,29.98,6,1,8,0.49
2013-8-11,86.2,77.1,68.5,74.4,70.1,64.7,93,80,63,30.08,29.99,5,1,11,0.00
2013-8-12,87.5,77.2,71.9,78.7,73.1,70.3,96,88,70,30.01,29.86,6,1,9,0.01
2013-8-13,82.4,74.6,67.9,72.1,68.0,63.2,95,81,60,30.03,29.88,8,1,10,0.00
2013-8-14,74.4,65.6,57.0,62.9,55.3,51.1,90,71,47,30.12,30.03,17,3,19,0.00
2013-8-15,76.3,65.4,56.3,60.7,56.3,52.4,90,74,51,30.10,30.00,9,1,12,0.00
2013-8-16,76.7,68.2,58.9,64.6,60.2,55.2,89,76,58,30.07,30.03,10,2,13,0.00
2013-8-17,79.4,71.0,64.9,66.8,63.2,59.9,89,77,56,30.11,30.02,11,3,17,0.00
2013-8-18,78.6,70.3,62.2,71.0,66.1,60.4,96,87,72,30.10,30.02,9,1,18,0.09
2013-8-19,83.7,72.9,63.6,71.5,67.0,62.4,97,83,60,30.08,29.98,9,1,10,0.07
2013-8-20,85.5,75.1,64.4,73.6,68.4,63.1,97,81,57,30.07,29.98,9,1,10,0.00
2013-8-21,88.6,77.1,66.3,74.5,69.4,64.9,97,80,53,30.10,29.99,5,1,9,0.06
2013-8-22,90.7,79.3,67.6,75.7,71.7,66.1,96,79,55,30.07,29.96,5,1,9,0.00
2013-8-23,90.0,79.2,70.1,78.6,72.8,68.5,97,82,61,30.03,29.96,8,1,13,0.02
2013-8-24,88.1,77.9,68.4,74.8,69.7,66.2,94,78,51,30.15,30.04,9,2,11,0.00
2013-8-25,86.3,74.5,66.0,76.3,69.0,64.1,95,84,67,30.21,30.13,7,1,8,0.07
2013-9-5,81.0,70.6,66.8,66.6,64.5,63.3,91,82,59,30.12,30.07,0,0,1,0.06
2013-9-6,86.0,74.2,64.2,69.1,65.5,61.5,95,77,45,30.13,30.00,9,1,11,0.00
2013-9-7,89.5,75.7,63.5,72.4,66.7,62.0,96,77,46,30.03,29.90,8,1,13,0.07
2013-9-8,86.1,76.9,67.2,75.4,70.7,65.3,95,82,66,29.95,29.85,7,1,10,0.00
2013-9-9,94.3,82.2,72.9,77.8,73.9,71.3,96,78,51,29.95,29.87,8,1,11,0.06
2013-9-10,92.0,81.7,73.3,76.7,73.2,71.2,95,77,53,30.07,29.95,10,1,12,0.01
2013-9-11,93.6,81.0,70.3,76.4,71.4,66.0,96,75,47,30.10,29.99,6,1,11,0.05
2013-9-12,88.9,77.9,67.7,73.4,69.4,59.5,96,77,57,30.02,29.90,7,1,13,0.00
2013-9-13,77.6,68.7,59.5,59.9,54.5,50.3,83,62,44,30.05,29.97,12,2,18,0.06
2013-9-14,74.8,63.0,53.2,53.1,50.1,44.8,90,66,35,30.12,30.00,9,1,13,0.00
2013-9-15,81.5,66.0,50.2,60.4,54.0,48.3,96,69,35,30.07,29.99,7,1,11,0.07
2013-9-16,72.6,67.2,63.5,65.7,62.5,57.1,94,85,77,30.18,30.04,9,1,10,0.06
2013-9-17,81.5,70.2,62.1,67.3,63.1,59.3,92,79,57,30.17,30.03,7,1,11,0.02
2013-9-18,88.5,75.4,67.5,72.5,68.4,64.5,93,80,54,30.06,29.93,8,1,11,0.00
2013-9-19,87.7,78.2,71.5,75.0,71.4,69.0,93,80,64,30.01,29.87,9,2,12,0.05
2013-9-20,77.5,72.4,65.5,71.5,68.5,61.8,96,88,74,29.90,29.79,7,1,11,0.47
2013-9-21,75.2,65.4,56.6,61.7,54.8,51.7,88,70,47,29.90,29.81,9,1,15,0.00
2013-9-22,76.1,63.1,50.7,56.7,52.4,48.7,94,71,43,29.96,29.87,9,1,13,0.00
2013-9-23,77.2,63.5,51.6,57.5,53.6,49.6,95,73,42,29.99,29.88,10,2,17,0.04
2013-9-24,75.2,65.5,56.2,69.4,61.7,54.2,95,88,79,29.91,29.78,9,2,12,0.01
2013-9-25,80.3,69.9,61.7,68.1,64.7,60.2,95,85,61,29.83,29.75,7,1,11,0.04
2013-9-26,82.9,70.8,60.5,68.7,63.5,59.3,97,80,51,29.97,29.82,8,1,11,0.01
2013-9-27,81.4,69.1,59.5,65.0,60.1,56.1,97,76,47,30.07,29.97,7,1,12,0.04
2013-9-28,82.4,72.0,60.2,66.2,61.1,56.3,93,71,48,30.06,29.95,11,2,16,0.00
2013-9-29,71.5,66.3,64.1,64.2,62.7,60.9,96,89,70,29.99,29.93,10,1,13,0.03
2013-9-30,70.4,66.7,64.4,66.4,64.6,62.9,96,93,85,29.95,29.89,8,1,9,0.00
2013-10-1,73.4,69.2,65.6,69.6,67.1,64.4,97,93,87,30.01,29.93,5,1,10,0.00
2013-10-2,78.7,70.8,67.5,72.9,69.0,66.4,97,94,80,30.04,29.97,6,0,12,0.26
2013-10-3,83.2,74.1,66.9,71.8,68.8,65.4,96,85,67,29.99,29.88,9,1,16,0.02
2013-10-4,83.1,73.8,70.3,74.8,70.5,68.0,96,90,72,29.99,29.90,7,1,22,0.00
2013-10-5,81.2,72.7,67.2,74.8,70.4,65.4,96,93,75,29.95,29.80,14,1,15,1.12
2013-10-6,67.7,59.0,48.7,64.4,49.9,43.7,94,74,49,29.92,29.80,12,2,15,0.01
2013-10-7,68.5,55.7,45.4,53.6,48.2,43.4,95,78,50,30.12,29.90,8,1,12,0.00
2013-10-8,71.1,57.4,45.6,54.0,49.4,44.5,97,78,47,30.19,30.08,11,2,17,0.00
2013-10-9,76.5,61.5,48.0,63.3,55.3,46.1,95,81,61,30.15,30.05,7,1,10,0.00
2013-10-10,77.3,65.7,56.8,66.7,60.5,55.6,98,85,59,30.12,29.98,9,0,11,0.00
2013-10-11,79.1,66.0,56.0,65.2,59.6,54.7,98,82,55,30.01,29.91,7,1,11,0.01
2013-10-12,69.7,63.4,58.0,66.0,61.4,56.5,97,93,87,30.12,29.94,5,0,8,0.46
2013-10-13,73.3,63.2,54.1,62.1,50.1,43.9,97,64,40,30.30,30.12,11,2,15,0.03
2013-10-14,69.4,60.5,53.2,60.7,51.8,42.6,89,73,63,30.26,30.04,7,2,9,0.00
2013-10-15,69.8,66.2,63.7,65.6,63.4,59.5,96,91,83,30.04,29.88,9,2,12,0.27
2013-10-16,65.5,57.0,48.7,62.1,50.6,46.5,95,80,55,30.01,29.90,12,1,12,0.00
2013-10-17,65.1,53.5,46.5,53.0,48.6,44.9,95,84,57,30.00,29.92,7,1,11,0.10
2013-10-18,69.8,55.3,42.7,54.0,48.0,41.3,97,79,45,30.04,29.91,6,1,10,0.05
2013-10-19,59.3,49.6,41.2,49.0,42.6,37.1,94,79,44,30.02,29.91,14,1,14,0.18
2013-10-20,65.7,51.8,38.9,47.9,43.0,37.4,96,75,49,30.05,29.94,15,1,18,0.00
2013-10-21,67.2,53.1,42.6,54.1,46.8,40.6,96,80,58,30.04,29.94,7,1,13,0.00
2013-10-22,61.1,49.3,35.6,48.3,40.9,34.0,96,75,48,30.06,29.82,9,2,16,0.08
2013-10-23,55.7,47.3,42.3,42.3,37.6,34.1,84,70,46,30.13,29.92,7,1,12,0.00
2013-10-24,52.6,45.2,36.7,40.7,34.0,27.7,88,67,40,30.40,30.10,8,1,13,0.00
2013-10-25,53.0,39.2,27.5,33.3,29.2,25.4,94,71,38,30.53,30.28,9,1,11,0.02
2013-10-26,60.2,47.8,33.9,47.5,38.5,30.0,92,71,58,30.28,30.02,10,2,17,0.00
2013-10-27,65.3,49.6,34.6,43.8,37.1,31.9,93,66,35,30.12,30.00,5,1,7,0.00
2013-10-28,69.6,53.3,38.8,52.9,46.1,37.2,95,79,51,30.21,30.04,7,0,8,0.00
2013-10-29,61.2,54.2,46.4,60.0,52.8,45.0,100,95,91,30.24,30.05,5,1,10,0.28
2013-10-30,75.7,67.8,60.9,66.8,63.5,59.7,97,87,70,30.08,29.87,15,2,18,0.02
2013-10-31,69.0,64.2,53.3,65.9,61.9,51.0,96,92,81,29.87,29.38,15,4,26,1.50
2013-11-1,68.3,55.7,47.0,53.6,47.3,43.1,97,76,43,29.84,29.66,10,1,15,0.01
2013-11-2,58.1,49.0,39.5,46.8,41.8,36.5,92,77,56,30.19,29.83,11,1,16,0.00
2013-11-3,57.7,41.1,32.6,43.4,35.7,31.2,96,84,44,30.31,30.17,5,0,7,0.00
2013-11-4,59.5,55.1,51.0,49.5,47.1,44.4,94,76,58,30.26,30.18,10,2,13,0.04
2013-11-5,62.6,57.5,50.1,53.3,49.6,47.9,96,76,61,30.26,30.07,10,2,14,0.00
2013-11-6,60.9,52.8,40.6,55.9,48.8,37.8,94,87,70,30.24,29.98,12,2,16,0.48
2013-11-7,52.1,40.6,36.2,38.4,36.1,33.7,93,85,53,30.39,30.24,4,1,9,0.00
2013-11-8,58.5,44.7,30.9,41.5,34.9,29.6,96,72,41,30.38,30.17,12,1,14,0.00
2013-11-9,64.6,52.8,41.0,48.3,42.8,35.8,88,70,53,30.20,30.10,11,2,15,0.00
2013-11-10,60.7,47.4,36.0,34.9,33.0,30.8,87,61,34,30.32,30.29,5,0,8,0.00
2013-11-11,60.7,48.7,35.9,47.3,38.3,32.3,90,69,45,30.35,30.13,15,2,21,0.00
2013-11-12,41.1,34.3,26.7,36.6,24.1,19.3,86,67,49,30.71,30.36,16,4,23,0.00
2013-11-13,44.4,32.6,19.8,26.5,21.7,17.1,92,67,35,30.73,30.40,8,1,11,0.00
2013-11-14,54.8,41.7,27.3,31.7,26.4,22.3,83,57,35,30.41,30.12,12,2,18,0.00
2013-11-15,51.7,46.6,41.0,44.6,35.4,26.9,84,65,53,30.13,30.00,7,1,9,0.00
2013-11-16,65.9,64.6,64.0,63.4,62.1,60.7,94,92,89,29.77,29.69,10,5,20,0.10
2013-11-17,78.3,66.7,53.6,68.3,53.3,27.3,95,68,26,29.93,29.47,19,4,31,1.15
2013-11-18,60.8,50.0,37.3,43.6,33.6,25.8,89,56,28,30.27,29.93,13,2,18,0.00
2013-11-19,50.3,41.6,33.7,30.7,28.6,25.1,87,61,39,30.34,30.20,7,2,12,0.00
2013-11-20,54.1,44.3,31.3,38.5,34.3,27.8,92,69,53,30.22,30.07,9,1,11,0.00
2013-11-21,55.0,52.7,49.8,53.8,47.9,37.9,96,85,62,30.19,30.11,9,1,12,0.52
2013-11-22,54.9,45.6,38.9,53.7,43.1,34.7,96,91,85,30.46,30.15,18,3,18,0.04
2013-11-23,42.3,34.5,23.5,35.0,24.0,13.1,89,67,43,30.69,30.45,15,4,19,0.01
2013-11-24,32.1,26.2,19.1,16.4,14.1,12.1,78,60,45,30.75,30.48,11,3,14,0.00
2013-11-25,35.1,32.7,29.4,29.5,22.8,16.4,85,67,58,30.49,30.19,8,2,10,0.00
2013-11-26,43.4,36.2,27.1,30.8,26.8,13.1,86,69,55,30.21,30.01,15,3,20,0.01
2013-11-27,32.6,25.5,19.4,15.7,12.5,9.9,81,58,42,30.38,30.19,13,3,22,0.00
2013-11-28,44.2,32.0,19.1,29.5,23.0,14.1,91,70,52,30.48,30.32,12,2,15,0.00
2013-11-29,49.8,35.8,24.5,33.6,28.2,22.3,100,76,52,30.59,30.42,8,1,9,0.00
2013-11-30,53.9,44.7,31.3,37.9,33.8,26.4,87,67,52,30.41,30.16,11,2,17,0.00
2013-12-1,58.6,46.6,38.0,46.1,39.6,34.2,94,77,61,30.17,29.90,7,1,11,0.00
2013-12-2,58.3,47.2,35.5,50.4,43.5,33.6,96,88,75,29.90,29.70,10,0,12,0.00
2013-12-3,61.3,53.0,46.6,54.7,49.9,45.2,97,90,71,29.74,29.65,7,1,12,0.00
2013-12-4,68.3,62.0,54.5,61.9,58.1,48.5,97,88,77,29.79,29.59,12,3,21,0.00
2013-12-5,55.2,36.0,25.9,48.8,31.7,23.6,93,85,73,30.26,29.79,12,2,16,0.09
2013-12-6,25.8,22.3,19.5,23.5,19.9,16.0,92,90,86,30.55,30.22,0,0,0,0.00
2013-12-7,22.5,18.1,12.7,16.3,12.9,9.0,86,80,73,30.69,30.43,10,3,15,0.01
2013-12-8,29.9,26.3,21.9,28.2,23.3,16.1,94,89,78,30.44,30.04,11,3,13,0.00
2013-12-9,34.3,28.7,24.7,26.8,22.4,16.4,94,78,62,30.32,30.14,10,2,10,0.05
2013-12-10,33.3,25.0,16.0,24.0,20.2,13.3,92,82,67,30.39,30.26,10,2,13,0.02
2013-12-11,38.2,25.6,15.8,28.3,19.5,12.1,94,79,60,30.66,30.37,9,2,14,0.12
2013-12-12,29.0,20.2,9.1,15.9,10.6,3.7,84,67,45,30.66,30.38,6,1,10,0.01
2013-12-13,38.0,29.2,17.1,33.4,23.6,14.0,94,80,64,30.37,29.98,7,1,8,0.11
2013-12-14,38.7,35.4,31.2,35.7,32.6,26.8,96,90,83,30.14,29.79,12,3,17,0.87
2013-12-15,34.1,31.1,28.6,31.7,27.1,24.1,92,85,79,30.25,30.12,9,2,14,0.00
2013-12-16,46.8,39.0,32.0,39.5,34.7,30.2,94,85,68,30.12,30.03,7,1,12,0.32
2013-12-17,48.1,36.9,29.3,35.5,30.1,26.5,95,78,53,30.31,30.09,8,1,8,0.03
2013-12-18,49.3,39.0,24.1,36.1,29.5,21.5,92,70,47,30.32,30.05,10,2,17,0.00
2013-12-19,58.3,51.2,42.8,52.1,44.8,36.0,84,79,73,30.05,29.86,16,3,20,0.00
2013-12-20,64.4,60.5,49.2,62.2,57.2,47.4,94,89,79,29.87,29.75,12,3,19,0.32
2013-12-21,49.1,40.8,36.4,47.4,39.4,34.8,96,95,94,29.75,29.49,16,3,17,3.71
2013-12-22,43.7,38.9,33.4,41.9,35.6,28.8,97,88,73,30.24,29.65,9,3,13,0.01
2013-12-23,34.3,30.2,24.4,29.2,22.5,17.1,85,73,60,30.54,30.24,8,3,14,0.00
2013-12-24,25.9,20.0,12.3,17.2,10.7,5.8,81,68,47,30.66,30.42,9,2,12,0.00
2013-12-25,39.8,31.0,21.6,30.6,23.9,15.7,93,75,64,30.43,30.28,11,2,14,0.00
2013-12-26,45.2,34.6,24.1,33.2,29.0,22.1,94,81,58,30.44,30.34,6,1,11,0.00
2013-12-27,50.7,37.3,26.7,38.5,32.2,24.6,94,83,60,30.44,30.32,7,1,11,0.00
2013-12-28,48.1,39.8,30.6,38.9,34.4,28.8,95,82,65,30.33,29.97,6,1,9,0.01
2013-12-29,48.2,36.1,25.1,39.1,31.0,18.6,95,82,66,30.25,29.91,11,3,14,0.00
2013-12-30,31.5,24.3,17.5,19.3,13.4,7.4,79,64,41,30.35,30.25,10,2,13,0.00
2013-12-31,43.1,31.8,18.9,31.0,23.2,15.1,89,72,48,30.47,30.27,10,1,11,0.00
2014-1-1,45.5,37.8,27.1,37.7,32.3,24.6,94,81,65,30.28,29.97,10,2,16,0.05
2014-1-2,39.7,24.8,17.9,36.9,18.2,11.3,92,76,56,30.49,29.95,17,5,21,0.00